Time;durP1;ratioP1;P1;durP2;ratioP2;P2;SDS_P1;SDS_P2;PMS_P1;PMS_P2;Temp;Humidity;BMP_temperature;BMP_pressure;BME280_temperature;BME280_humidity;BME280_pressure;Samples;Min_cycle;Max_cycle;Signal;HPM_P1;HPM_P2
2022/11/29 00:01:36;;;;;;;11.52;8.15;;;;;;;;;;5036277;28;20412;-78
2022/11/29 00:04:03;;;;;;;13.88;10.70;;;;;;;;;;5036228;28;20443;-77
2022/11/29 00:06:30;;;;;;;16.52;11.77;;;;;;;;;;5036036;28;20112;-77
2022/11/29 00:08:57;;;;;;;17.38;12.35;;;;;;;;;;5036148;28;20092;-78
2022/11/29 00:14:11;;;;;;;17.30;11.90;;;;;;;;;;5036058;28;20120;-78
2022/11/29 00:16:41;;;;;;;15.82;11.40;;;;;;;;;;5035898;28;20088;-77
2022/11/29 00:19:07;;;;;;;12.50;9.35;;;;;;;;;;5035792;28;20437;-77
2022/11/29 00:21:33;;;;;;;14.07;8.80;;;;;;;;;;5035917;28;20036;-77
2022/11/29 00:23:59;;;;;;;10.35;8.15;;;;;;;;;;5035917;28;20029;-79
2022/11/29 00:26:26;;;;;;;8.80;7.90;;;;;;;;;;5035736;28;20057;-77
2022/11/29 00:28:52;;;;;;;10.55;7.97;;;;;;;;;;5035639;28;20029;-77
2022/11/29 00:31:22;;;;;;;8.55;6.75;;;;;;;;;;5035839;28;20060;-78
2022/11/29 00:33:48;;;;;;;9.30;7.80;;;;;;;;;;5035648;28;20025;-77
2022/11/29 00:36:15;;;;;;;10.57;7.72;;;;;;;;;;5035617;28;20044;-77
2022/11/29 00:38:42;;;;;;;10.43;7.72;;;;;;;;;;5035564;28;20084;-78
2022/11/29 00:41:08;;;;;;;10.90;8.15;;;;;;;;;;5035356;28;20038;-79
2022/11/29 00:43:34;;;;;;;11.63;8.90;;;;;;;;;;5017732;28;20029;-78
2022/11/29 00:46:00;;;;;;;9.07;7.93;;;;;;;;;;5035378;28;20492;-77
2022/11/29 00:48:26;;;;;;;9.60;7.00;;;;;;;;;;5035554;28;20036;-78
2022/11/29 00:50:52;;;;;;;10.00;7.45;;;;;;;;;;5035453;28;20105;-78
2022/11/29 00:53:18;;;;;;;9.77;7.20;;;;;;;;;;5035033;28;20029;-78
2022/11/29 00:55:45;;;;;;;9.93;7.32;;;;;;;;;;5035132;28;20026;-77
2022/11/29 00:58:11;;;;;;;8.75;6.32;;;;;;;;;;5017437;28;20385;-77
2022/11/29 01:00:37;;;;;;;7.47;6.60;;;;;;;;;;5034819;28;20049;-78
2022/11/29 01:03:03;;;;;;;10.23;7.63;;;;;;;;;;5035195;28;20025;-78
2022/11/29 01:05:30;;;;;;;9.10;7.43;;;;;;;;;;5035369;28;20032;-78
2022/11/29 01:07:56;;;;;;;9.80;7.82;;;;;;;;;;5034998;28;20473;-77
2022/11/29 01:10:22;;;;;;;13.70;10.63;;;;;;;;;;5034844;28;20032;-77
2022/11/29 01:12:48;;;;;;;13.93;10.88;;;;;;;;;;5034883;28;20525;-78
2022/11/29 01:15:14;;;;;;;12.35;8.95;;;;;;;;;;5034781;28;20068;-79
2022/11/29 01:17:41;;;;;;;13.27;9.90;;;;;;;;;;5034777;28;20466;-78
2022/11/29 01:20:07;;;;;;;15.75;11.18;;;;;;;;;;5034707;28;20037;-78
2022/11/29 01:22:34;;;;;;;15.48;9.95;;;;;;;;;;5034745;28;20033;-78
2022/11/29 01:25:00;;;;;;;12.88;8.55;;;;;;;;;;5034916;28;20131;-78
2022/11/29 01:27:26;;;;;;;12.68;10.07;;;;;;;;;;5034633;28;20025;-78
2022/11/29 01:29:52;;;;;;;12.00;9.20;;;;;;;;;;5034767;28;20088;-77
2022/11/29 01:32:20;;;;;;;13.57;9.05;;;;;;;;;;5034430;28;20489;-78
2022/11/29 01:34:46;;;;;;;10.77;8.20;;;;;;;;;;5034580;28;20029;-77
2022/11/29 01:37:12;;;;;;;8.50;7.47;;;;;;;;;;5034386;28;20037;-78
2022/11/29 01:39:38;;;;;;;8.27;7.15;;;;;;;;;;5034399;28;20132;-78
2022/11/29 01:42:04;;;;;;;11.50;7.88;;;;;;;;;;5034367;28;20080;-77
2022/11/29 01:44:30;;;;;;;13.07;9.30;;;;;;;;;;5034531;28;20096;-78
2022/11/29 01:46:56;;;;;;;12.77;9.05;;;;;;;;;;5034336;28;20059;-78
2022/11/29 01:49:36;;;;;;;11.02;8.27;;;;;;;;;;5034217;28;20022;-77
2022/11/29 01:52:05;;;;;;;8.75;7.03;;;;;;;;;;5034239;28;20052;-78
2022/11/29 01:54:33;;;;;;;8.30;7.50;;;;;;;;;;5034378;28;20029;-78
2022/11/29 01:57:00;;;;;;;8.20;6.88;;;;;;;;;;5034038;28;20057;-79
2022/11/29 01:59:27;;;;;;;8.48;6.63;;;;;;;;;;5034224;28;20104;-78
2022/11/29 02:01:56;;;;;;;10.13;7.95;;;;;;;;;;5033849;28;20049;-78
2022/11/29 02:04:23;;;;;;;10.77;8.07;;;;;;;;;;5033139;28;20396;-77
2022/11/29 02:06:49;;;;;;;8.57;7.18;;;;;;;;;;5033974;28;20108;-78
2022/11/29 02:09:18;;;;;;;8.55;7.53;;;;;;;;;;5033995;28;20034;-79
2022/11/29 02:12:03;;;;;;;9.13;6.70;;;;;;;;;;5033858;28;20025;-78
2022/11/29 02:14:44;;;;;;;9.52;7.13;;;;;;;;;;5033907;28;20021;-77
2022/11/29 02:17:13;;;;;;;11.48;7.72;;;;;;;;;;5033772;28;20032;-78
2022/11/29 02:19:58;;;;;;;9.70;7.88;;;;;;;;;;5033622;28;20037;-78
2022/11/29 02:22:28;;;;;;;10.55;7.75;;;;;;;;;;5033855;28;20029;-78
2022/11/29 02:25:27;;;;;;;9.05;7.22;;;;;;;;;;5033757;28;20036;-78
2022/11/29 02:27:59;;;;;;;8.90;7.13;;;;;;;;;;5000620;28;20038;-78
2022/11/29 02:30:25;;;;;;;8.82;7.03;;;;;;;;;;5033711;28;20055;-78
2022/11/29 02:33:10;;;;;;;8.77;7.10;;;;;;;;;;5033521;28;20029;-77
2022/11/29 02:35:45;;;;;;;11.20;8.27;;;;;;;;;;5033448;28;20033;-78
2022/11/29 02:38:30;;;;;;;9.43;7.03;;;;;;;;;;5033591;28;20049;-78
2022/11/29 02:41:13;;;;;;;8.60;6.72;;;;;;;;;;5033279;28;20034;-78
2022/11/29 02:43:58;;;;;;;8.52;7.40;;;;;;;;;;5033517;28;20049;-78
2022/11/29 02:46:24;;;;;;;8.13;7.25;;;;;;;;;;5033519;28;20069;-78
2022/11/29 02:48:57;;;;;;;11.90;7.97;;;;;;;;;;5033336;28;20088;-77
2022/11/29 02:51:27;;;;;;;8.30;7.47;;;;;;;;;;5033385;28;20013;-78
2022/11/29 02:54:15;;;;;;;10.52;7.78;;;;;;;;;;5033476;28;20025;-78
2022/11/29 02:56:53;;;;;;;11.13;8.23;;;;;;;;;;5033275;28;20025;-78
2022/11/29 02:59:26;;;;;;;10.77;7.93;;;;;;;;;;5033221;28;20025;-78
2022/11/29 03:02:15;;;;;;;9.90;7.65;;;;;;;;;;5032974;28;20510;-78
2022/11/29 03:04:50;;;;;;;13.30;8.00;;;;;;;;;;5025514;28;20120;-78
2022/11/29 03:07:22;;;;;;;10.60;8.00;;;;;;;;;;5033074;28;20032;-77
2022/11/29 03:10:07;;;;;;;8.45;7.18;;;;;;;;;;5033107;28;20013;-78
2022/11/29 03:12:51;;;;;;;9.57;7.30;;;;;;;;;;5033199;28;20509;-77
2022/11/29 03:15:36;;;;;;;12.60;8.40;;;;;;;;;;5034832;28;20029;-78
2022/11/29 03:18:20;;;;;;;10.13;7.28;;;;;;;;;;5037062;28;20029;-79
2022/11/29 03:20:57;;;;;;;9.75;7.15;;;;;;;;;;5037150;28;20033;-78
2022/11/29 03:23:27;;;;;;;9.73;7.32;;;;;;;;;;5036968;28;20373;-78
2022/11/29 03:25:53;;;;;;;8.55;7.07;;;;;;;;;;5037043;28;20025;-78
2022/11/29 03:28:19;;;;;;;9.00;7.15;;;;;;;;;;5036938;28;20469;-78
2022/11/29 03:30:50;;;;;;;10.50;7.80;;;;;;;;;;5036731;28;20029;-79
2022/11/29 03:33:21;;;;;;;9.07;7.13;;;;;;;;;;5036907;28;20037;-79
2022/11/29 03:35:56;;;;;;;9.30;7.45;;;;;;;;;;5019002;28;20416;-78
2022/11/29 03:38:41;;;;;;;10.82;7.18;;;;;;;;;;5036636;28;20026;-77
2022/11/29 03:41:17;;;;;;;9.50;7.13;;;;;;;;;;5036581;28;20104;-77
2022/11/29 03:43:47;;;;;;;11.07;7.80;;;;;;;;;;5036726;28;20492;-77
2022/11/29 03:46:31;;;;;;;9.68;7.60;;;;;;;;;;5036576;28;20100;-78
2022/11/29 03:49:08;;;;;;;10.85;8.15;;;;;;;;;;5036544;28;20025;-78
2022/11/29 03:51:49;;;;;;;10.10;7.93;;;;;;;;;;5036526;28;20029;-78
2022/11/29 03:54:17;;;;;;;9.23;7.28;;;;;;;;;;5036444;28;20022;-77
2022/11/29 03:56:43;;;;;;;11.43;8.93;;;;;;;;;;5036449;28;20052;-78
2022/11/29 03:59:28;;;;;;;11.98;9.90;;;;;;;;;;5036180;28;20033;-78
2022/11/29 04:01:54;;;;;;;11.68;8.38;;;;;;;;;;5036146;28;20048;-78
2022/11/29 04:04:39;;;;;;;12.23;9.38;;;;;;;;;;5036130;28;20028;-78
2022/11/29 04:07:07;;;;;;;13.18;9.88;;;;;;;;;;5036239;28;20065;-77
2022/11/29 04:09:41;;;;;;;12.10;8.88;;;;;;;;;;5036150;28;20037;-78
2022/11/29 04:12:26;;;;;;;10.48;8.75;;;;;;;;;;5035882;28;20433;-79
2022/11/29 04:15:10;;;;;;;11.80;9.15;;;;;;;;;;5026862;28;20030;-78
2022/11/29 04:17:55;;;;;;;12.48;8.98;;;;;;;;;;5016208;28;20104;-78
2022/11/29 04:20:39;;;;;;;11.88;9.00;;;;;;;;;;5016040;28;20120;-78
2022/11/29 04:23:28;;;;;;;11.25;8.82;;;;;;;;;;5016126;28;20112;-78
2022/11/29 04:26:02;;;;;;;11.68;9.15;;;;;;;;;;5015248;28;20041;-78
2022/11/29 04:28:32;;;;;;;10.40;7.72;;;;;;;;;;5015680;28;20061;-78
2022/11/29 04:31:16;;;;;;;14.23;10.32;;;;;;;;;;5015825;28;20504;-78
2022/11/29 04:34:01;;;;;;;12.38;9.43;;;;;;;;;;5015722;28;20037;-77
2022/11/29 04:36:27;;;;;;;12.70;10.60;;;;;;;;;;5015584;28;20068;-77
2022/11/29 04:39:08;;;;;;;12.57;9.60;;;;;;;;;;5015553;28;20469;-78
2022/11/29 04:41:53;;;;;;;12.70;9.23;;;;;;;;;;5015775;28;20389;-78
2022/11/29 04:44:27;;;;;;;14.80;11.45;;;;;;;;;;5014683;28;20057;-77
2022/11/29 04:47:03;;;;;;;23.13;15.93;;;;;;;;;;5015358;28;20072;-77
2022/11/29 04:49:47;;;;;;;17.67;12.00;;;;;;;;;;5015141;28;20022;-78
2022/11/29 04:52:19;;;;;;;14.93;10.60;;;;;;;;;;5017714;28;20436;-78
2022/11/29 04:55:04;;;;;;;16.15;9.75;;;;;;;;;;5025562;28;20033;-78
2022/11/29 04:57:30;;;;;;;;;;;;;;;;;;5022025;28;20052;-78
2022/11/29 05:00:10;;;;;;;15.82;10.65;;;;;;;;;;5025890;28;19920;-78
2022/11/29 05:02:56;;;;;;;17.20;12.32;;;;;;;;;;5029419;28;20046;-77
2022/11/29 05:05:23;;;;;;;14.45;10.50;;;;;;;;;;5020786;28;20033;-77
2022/11/29 05:08:08;;;;;;;17.00;10.82;;;;;;;;;;5028972;28;20497;-78
2022/11/29 05:10:39;;;;;;;15.82;11.50;;;;;;;;;;5023482;28;20030;-79
2022/11/29 05:13:10;;;;;;;18.05;10.07;;;;;;;;;;5019566;28;20042;-78
2022/11/29 05:15:36;;;;;;;19.50;10.88;;;;;;;;;;5024137;28;20477;-77
2022/11/29 05:18:05;;;;;;;22.23;12.75;;;;;;;;;;5025069;28;20038;-77
2022/11/29 05:20:35;;;;;;;27.42;11.75;;;;;;;;;;5013475;28;20392;-77
2022/11/29 05:23:07;;;;;;;21.90;13.77;;;;;;;;;;5025138;28;20049;-77
2022/11/29 05:25:42;;;;;;;24.13;16.80;;;;;;;;;;5027942;28;20036;-77
2022/11/29 05:28:20;;;;;;;19.65;12.68;;;;;;;;;;5026933;28;20488;-77
2022/11/29 05:30:54;;;;;;;22.98;16.27;;;;;;;;;;5005896;28;20563;-78
2022/11/29 05:33:20;;;;;;;21.23;14.77;;;;;;;;;;5026588;28;20076;-77
2022/11/29 05:35:53;;;;;;;27.90;17.00;;;;;;;;;;5023040;28;20096;-77
2022/11/29 05:38:41;;;;;;;27.27;18.02;;;;;;;;;;5026139;28;20053;-78
2022/11/29 05:41:13;;;;;;;22.92;16.88;;;;;;;;;;5018986;28;20457;-77
2022/11/29 05:43:45;;;;;;;26.45;19.15;;;;;;;;;;5019623;28;20033;-78
2022/11/29 05:46:30;;;;;;;33.22;22.58;;;;;;;;;;5021585;28;20109;-78
2022/11/29 05:49:15;;;;;;;25.25;17.80;;;;;;;;;;5014742;28;20029;-78
2022/11/29 05:51:40;;;;;;;;;;;;;;;;;;5015377;28;20033;-78
2022/11/29 05:54:25;;;;;;;19.48;13.30;;;;;;;;;;5025082;28;20015;-78
2022/11/29 05:56:51;;;;;;;;;;;;;;;;;;5003909;28;20033;-78
2022/11/29 05:59:19;;;;;;;20.70;14.75;;;;;;;;;;5025198;28;19932;-77
2022/11/29 06:02:05;;;;;;;24.55;17.08;;;;;;;;;;5003808;28;20066;-78
2022/11/29 06:04:40;;;;;;;22.25;17.67;;;;;;;;;;4993596;28;20105;-79
2022/11/29 06:07:30;;;;;;;33.45;24.20;;;;;;;;;;4993351;28;20401;-80
2022/11/29 06:10:00;;;;;;;99.20;61.60;;;;;;;;;;4993076;28;20029;-79
2022/11/29 06:12:29;;;;;;;82.03;54.58;;;;;;;;;;4998779;28;20500;-79
2022/11/29 06:15:15;;;;;;;66.05;43.85;;;;;;;;;;4995335;28;20026;-79
2022/11/29 06:17:54;;;;;;;65.53;39.25;;;;;;;;;;4986519;28;20548;-79
2022/11/29 06:20:20;;;;;;;67.85;43.67;;;;;;;;;;4993113;28;20039;-80
2022/11/29 06:22:54;;;;;;;72.20;44.63;;;;;;;;;;5009672;28;20536;-79
2022/11/29 06:25:23;;;;;;;68.07;43.75;;;;;;;;;;4994342;28;20038;-78
2022/11/29 06:27:50;;;;;;;40.47;28.08;;;;;;;;;;5002631;28;20080;-79
2022/11/29 06:30:19;;;;;;;48.53;27.45;;;;;;;;;;4996933;28;20125;-79
2022/11/29 06:32:46;;;;;;;37.30;23.52;;;;;;;;;;4990296;28;20022;-79
2022/11/29 06:35:45;;;;;;;59.53;29.92;;;;;;;;;;4985433;28;20053;-80
2022/11/29 06:38:29;;;;;;;35.00;20.88;;;;;;;;;;4941651;28;20051;-78
2022/11/29 06:40:57;;;;;;;39.17;22.58;;;;;;;;;;4991983;28;20129;-78
2022/11/29 06:43:24;;;;;;;32.58;17.50;;;;;;;;;;4988958;28;20042;-79
2022/11/29 06:46:13;;;;;;;28.95;17.65;;;;;;;;;;4995670;28;20036;-81
2022/11/29 06:48:45;;;;;;;38.13;22.27;;;;;;;;;;4989396;28;20085;-81
2022/11/29 06:51:24;;;;;;;39.90;25.02;;;;;;;;;;4995095;28;20030;-84
2022/11/29 06:54:11;;;;;;;119.60;68.07;;;;;;;;;;4980731;28;20089;-79
2022/11/29 06:56:38;;;;;;;74.80;47.60;;;;;;;;;;4966407;28;20038;-78
2022/11/29 06:59:23;;;;;;;71.13;46.33;;;;;;;;;;4986062;28;20742;-78
2022/11/29 07:01:54;;;;;;;65.80;42.17;;;;;;;;;;4994859;28;20046;-78
2022/11/29 07:04:39;;;;;;;46.42;33.75;;;;;;;;;;4994818;28;20486;-78
2022/11/29 07:07:18;;;;;;;54.97;39.08;;;;;;;;;;4995634;28;20103;-78
2022/11/29 07:09:45;;;;;;;62.95;48.30;;;;;;;;;;4992710;28;20035;-84
2022/11/29 07:12:12;;;;;;;54.38;43.42;;;;;;;;;;5001450;28;20438;-80
2022/11/29 07:14:38;;;;;;;37.25;26.75;;;;;;;;;;4999644;28;20124;-79
2022/11/29 07:17:36;;;;;;;32.03;24.50;;;;;;;;;;4983615;28;20041;-80
2022/11/29 07:20:09;;;;;;;33.13;21.05;;;;;;;;;;4942910;28;20050;-79
2022/11/29 07:22:54;;;;;;;35.92;24.27;;;;;;;;;;4999978;28;20164;-78
2022/11/29 07:25:20;;;;;;;41.67;25.27;;;;;;;;;;4990120;28;20434;-77
2022/11/29 07:28:10;;;;;;;113.60;66.68;;;;;;;;;;4990855;28;20073;-78
2022/11/29 07:30:39;;;;;;;60.85;37.15;;;;;;;;;;4991587;28;20092;-78
2022/11/29 07:33:15;;;;;;;48.50;29.88;;;;;;;;;;4990042;28;20238;-79
2022/11/29 07:35:47;;;;;;;49.53;31.70;;;;;;;;;;4980361;28;20031;-78
2022/11/29 07:38:16;;;;;;;28.35;18.55;;;;;;;;;;4982002;28;20053;-78
2022/11/29 07:40:42;;;;;;;27.45;14.85;;;;;;;;;;4996882;28;20043;-77
2022/11/29 07:43:10;;;;;;;29.33;16.52;;;;;;;;;;4987316;28;20027;-77
2022/11/29 07:45:37;;;;;;;28.55;15.90;;;;;;;;;;4993963;28;20042;-78
2022/11/29 07:48:03;;;;;;;18.00;13.35;;;;;;;;;;4994467;28;20039;-78
2022/11/29 07:50:30;;;;;;;16.83;12.57;;;;;;;;;;4991494;28;20105;-77
2022/11/29 07:52:56;;;;;;;21.75;14.60;;;;;;;;;;4989838;28;20074;-77
2022/11/29 07:55:26;;;;;;;42.20;19.58;;;;;;;;;;4984392;28;20033;-78
2022/11/29 07:57:52;;;;;;;23.50;15.00;;;;;;;;;;5003941;28;20113;-79
2022/11/29 08:00:19;;;;;;;27.10;15.98;;;;;;;;;;4999040;28;20049;-78
2022/11/29 08:02:46;;;;;;;20.75;14.48;;;;;;;;;;5000526;28;20109;-77
2022/11/29 08:05:12;;;;;;;17.23;13.10;;;;;;;;;;4985994;28;20065;-79
2022/11/29 08:07:39;;;;;;;17.13;13.10;;;;;;;;;;4965653;28;20482;-76
2022/11/29 08:10:07;;;;;;;17.15;13.13;;;;;;;;;;5000180;28;20034;-77
2022/11/29 08:12:33;;;;;;;17.17;12.48;;;;;;;;;;4993797;28;20125;-80
2022/11/29 08:14:59;;;;;;;13.20;10.50;;;;;;;;;;4992259;28;20023;-80
2022/11/29 08:17:26;;;;;;;15.80;11.88;;;;;;;;;;4993300;28;20044;-80
2022/11/29 08:19:55;;;;;;;15.23;12.25;;;;;;;;;;4995783;28;20040;-80
2022/11/29 08:22:21;;;;;;;27.40;14.45;;;;;;;;;;4997874;28;20665;-77
2022/11/29 08:24:47;;;;;;;16.80;11.63;;;;;;;;;;4998797;28;20476;-77
2022/11/29 08:27:13;;;;;;;15.73;12.00;;;;;;;;;;4990356;28;20418;-79
2022/11/29 08:29:39;;;;;;;29.08;13.90;;;;;;;;;;4993488;28;20019;-78
2022/11/29 08:32:08;;;;;;;12.10;9.07;;;;;;;;;;5000688;28;20370;-78
2022/11/29 08:34:34;;;;;;;8.70;6.80;;;;;;;;;;4993192;28;20038;-80
2022/11/29 08:37:00;;;;;;;11.85;8.23;;;;;;;;;;4993363;28;20441;-80
2022/11/29 08:39:30;;;;;;;16.08;9.77;;;;;;;;;;4994237;28;20045;-79
2022/11/29 08:41:56;;;;;;;19.83;9.98;;;;;;;;;;4992466;28;20042;-78
2022/11/29 08:44:28;;;;;;;33.03;13.02;;;;;;;;;;4990645;28;20092;-79
2022/11/29 08:49:59;;;;;;;54.65;22.90;;;;;;;;;;5009650;28;20037;-77
2022/11/29 08:55:21;;;;;;;35.92;17.00;;;;;;;;;;4973074;28;20089;-79
2022/11/29 08:57:48;;;;;;;32.10;15.23;;;;;;;;;;4990623;28;20034;-79
2022/11/29 09:00:20;;;;;;;36.65;23.10;;;;;;;;;;4990926;28;20041;-79
2022/11/29 09:02:46;;;;;;;42.88;23.70;;;;;;;;;;5009310;28;20061;-78
2022/11/29 09:05:17;;;;;;;57.65;27.55;;;;;;;;;;5011381;28;20096;-80
2022/11/29 09:07:45;;;;;;;48.60;22.38;;;;;;;;;;4993721;28;20098;-80
2022/11/29 09:10:11;;;;;;;49.95;25.63;;;;;;;;;;5017873;28;20036;-86
2022/11/29 09:12:45;;;;;;;72.95;32.22;;;;;;;;;;5017902;28;20116;-84
2022/11/29 09:15:12;;;;;;;51.05;27.83;;;;;;;;;;5014582;28;20033;-82
2022/11/29 09:17:38;;;;;;;40.92;27.02;;;;;;;;;;5005196;28;20046;-79
2022/11/29 09:20:05;;;;;;;39.15;24.27;;;;;;;;;;5019839;28;20053;-83
2022/11/29 09:22:31;;;;;;;58.40;29.98;;;;;;;;;;5030707;28;20468;-81
2022/11/29 09:24:57;;;;;;;41.42;21.52;;;;;;;;;;5012263;28;20033;-84
2022/11/29 09:27:37;;;;;;;96.22;34.30;;;;;;;;;;4992696;28;20036;-84
2022/11/29 09:30:04;;;;;;;32.05;16.23;;;;;;;;;;5010004;28;20037;-84
2022/11/29 09:32:30;;;;;;;86.53;29.92;;;;;;;;;;5007301;28;20042;-80
2022/11/29 09:34:56;;;;;;;116.55;39.85;;;;;;;;;;5026150;28;20507;-84
2022/11/29 09:37:22;;;;;;;62.55;26.05;;;;;;;;;;5018410;28;20034;-86
2022/11/29 09:39:48;;;;;;;59.05;28.50;;;;;;;;;;5015047;28;20084;-83
2022/11/29 09:42:33;;;;;;;161.38;56.08;;;;;;;;;;5013390;28;20045;-83
2022/11/29 09:45:18;;;;;;;44.45;25.30;;;;;;;;;;4990279;28;20038;-85
2022/11/29 09:47:54;;;;;;;87.63;37.30;;;;;;;;;;5015256;28;20030;-83
2022/11/29 09:50:33;;;;;;;76.93;34.80;;;;;;;;;;5012371;28;20033;-84
2022/11/29 09:53:05;;;;;;;70.57;32.75;;;;;;;;;;5021237;28;20025;-88
2022/11/29 09:55:49;;;;;;;74.40;32.85;;;;;;;;;;5018829;28;20029;-85
2022/11/29 09:58:15;;;;;;;;;;;;;;;;;;5010020;28;20133;-81
2022/11/29 10:00:46;;;;;;;56.03;29.70;;;;;;;;;;5008373;28;20439;-82
2022/11/29 10:03:31;;;;;;;98.93;41.65;;;;;;;;;;4993105;28;20063;-81
2022/11/29 10:06:10;;;;;;;89.72;36.75;;;;;;;;;;4983025;28;20099;-82
2022/11/29 10:08:47;;;;;;;39.63;20.50;;;;;;;;;;4995895;28;20042;-82
2022/11/29 10:11:17;;;;;;;47.53;24.90;;;;;;;;;;4994940;28;20026;-82
2022/11/29 10:13:47;;;;;;;30.60;19.27;;;;;;;;;;4990939;28;20416;-81
2022/11/29 10:16:18;;;;;;;49.38;24.80;;;;;;;;;;4990602;28;20082;-81
2022/11/29 10:18:54;;;;;;;52.00;26.42;;;;;;;;;;4988673;28;20034;-80
2022/11/29 10:21:23;;;;;;;45.88;24.17;;;;;;;;;;4985847;28;20126;-80
2022/11/29 10:24:08;;;;;;;68.22;30.83;;;;;;;;;;4989757;28;20053;-81
2022/11/29 10:26:34;;;;;;;84.20;34.45;;;;;;;;;;5001669;28;20030;-77
2022/11/29 10:29:00;;;;;;;59.03;25.10;;;;;;;;;;5005824;28;20041;-81
2022/11/29 10:31:28;;;;;;;90.78;34.70;;;;;;;;;;4992125;28;20034;-80
2022/11/29 10:33:55;;;;;;;71.60;27.88;;;;;;;;;;4995574;28;20375;-81
2022/11/29 10:36:21;;;;;;;101.20;36.85;;;;;;;;;;4962895;28;20030;-81
2022/11/29 10:38:48;;;;;;;64.38;26.30;;;;;;;;;;4993966;28;20033;-84
2022/11/29 10:41:18;;;;;;;59.88;25.20;;;;;;;;;;4981021;28;20050;-82
2022/11/29 10:43:44;;;;;;;41.25;18.92;;;;;;;;;;4990359;28;20030;-80
2022/11/29 10:46:14;;;;;;;46.80;22.77;;;;;;;;;;4991615;28;20557;-83
2022/11/29 10:48:40;;;;;;;55.65;21.60;;;;;;;;;;4992707;28;20461;-80
2022/11/29 10:51:14;;;;;;;20.55;11.90;;;;;;;;;;4990988;28;20022;-81
2022/11/29 10:53:42;;;;;;;46.00;19.50;;;;;;;;;;4989110;28;20490;-81
2022/11/29 10:56:29;;;;;;;64.75;26.63;;;;;;;;;;4968262;28;20031;-83
2022/11/29 10:59:08;;;;;;;69.15;24.65;;;;;;;;;;4986341;28;20544;-84
2022/11/29 11:01:53;;;;;;;26.73;14.93;;;;;;;;;;4979239;28;20049;-85
2022/11/29 11:04:37;;;;;;;54.97;22.45;;;;;;;;;;5016649;28;20030;-82
2022/11/29 11:07:05;;;;;;;23.25;15.77;;;;;;;;;;4990702;28;20033;-82
2022/11/29 11:09:36;;;;;;;11.27;9.43;;;;;;;;;;5005679;28;20057;-83
2022/11/29 11:12:24;;;;;;;44.50;18.45;;;;;;;;;;5012656;28;20034;-79
2022/11/29 11:14:50;;;;;;;29.23;16.98;;;;;;;;;;5007170;28;20026;-80
2022/11/29 11:17:36;;;;;;;55.20;23.55;;;;;;;;;;5006164;28;20041;-80
2022/11/29 11:20:04;;;;;;;14.20;9.48;;;;;;;;;;5009095;28;20087;-79
2022/11/29 11:22:32;;;;;;;15.93;9.32;;;;;;;;;;5003232;28;20089;-80
2022/11/29 11:25:18;;;;;;;25.50;10.48;;;;;;;;;;5017003;28;20457;-80
2022/11/29 11:27:44;;;;;;;46.42;18.15;;;;;;;;;;5007072;28;20486;-79
2022/11/29 11:30:29;;;;;;;54.33;20.30;;;;;;;;;;5016280;28;20026;-80
2022/11/29 11:32:54;;;;;;;;;;;;;;;;;;5012104;28;20030;-81
2022/11/29 11:35:22;;;;;;;37.95;15.55;;;;;;;;;;5012948;28;19916;-80
2022/11/29 11:37:56;;;;;;;38.88;15.45;;;;;;;;;;5011271;28;20104;-79
2022/11/29 11:40:27;;;;;;;34.50;14.27;;;;;;;;;;5007039;28;20039;-81
2022/11/29 11:42:54;;;;;;;32.10;13.52;;;;;;;;;;5012168;28;20038;-79
2022/11/29 11:45:40;;;;;;;13.90;6.95;;;;;;;;;;5001660;28;20362;-78
2022/11/29 11:48:33;;;;;;;18.48;13.57;;;;;;;;;;5014793;28;20032;-82
2022/11/29 11:51:03;;;;;;;55.42;32.92;;;;;;;;;;4996260;28;20034;-81
2022/11/29 11:53:36;;;;;;;17.52;10.68;;;;;;;;;;4994735;28;20481;-81
2022/11/29 11:56:08;;;;;;;17.65;9.60;;;;;;;;;;4995252;28;20061;-83
2022/11/29 11:58:36;;;;;;;27.90;14.55;;;;;;;;;;5020935;28;20041;-79
2022/11/29 12:01:20;;;;;;;23.65;10.65;;;;;;;;;;5008234;28;20087;-82
2022/11/29 12:03:58;;;;;;;14.15;7.43;;;;;;;;;;5001877;28;20033;-78
2022/11/29 12:06:44;;;;;;;16.63;9.00;;;;;;;;;;5008999;28;20034;-81
2022/11/29 12:09:27;;;;;;;16.42;8.73;;;;;;;;;;5010949;28;20045;-82
2022/11/29 12:12:04;;;;;;;24.60;10.55;;;;;;;;;;4998834;28;20042;-81
2022/11/29 12:14:38;;;;;;;21.95;9.73;;;;;;;;;;4992822;28;20040;-82
2022/11/29 12:17:19;;;;;;;14.93;6.63;;;;;;;;;;5013964;28;20053;-82
2022/11/29 12:19:59;;;;;;;34.63;13.00;;;;;;;;;;5011303;28;20061;-81
2022/11/29 12:22:28;;;;;;;19.20;9.85;;;;;;;;;;5020298;28;20033;-80
2022/11/29 12:24:59;;;;;;;15.77;9.30;;;;;;;;;;5005875;28;20405;-80
2022/11/29 12:27:25;;;;;;;24.05;11.80;;;;;;;;;;5007044;28;20116;-84
2022/11/29 12:29:54;;;;;;;13.30;10.35;;;;;;;;;;5011337;28;20029;-80
2022/11/29 12:32:42;;;;;;;23.15;11.68;;;;;;;;;;5005537;28;20699;-79
2022/11/29 12:35:27;;;;;;;23.10;10.63;;;;;;;;;;5006370;28;20052;-81
2022/11/29 12:37:53;;;;;;;;;;;;;;;;;;5004678;28;20018;-79
2022/11/29 12:40:38;;;;;;;9.05;5.95;;;;;;;;;;5012930;28;19920;-79
2022/11/29 12:43:04;;;;;;;;;;;;;;;;;;5012710;28;20029;-80
2022/11/29 12:45:41;;;;;;;32.40;22.95;;;;;;;;;;5018610;28;20329;-79
2022/11/29 12:48:25;;;;;;;18.40;12.10;;;;;;;;;;5011739;28;20378;-81
2022/11/29 12:50:54;;;;;;;15.55;8.77;;;;;;;;;;5010991;28;20521;-80
2022/11/29 12:53:39;;;;;;;24.15;16.17;;;;;;;;;;5014178;28;20030;-79
2022/11/29 12:56:05;;;;;;;;;;;;;;;;;;5018924;28;20481;-80
2022/11/29 12:58:31;;;;;;;21.60;12.48;;;;;;;;;;5020477;28;19916;-81
2022/11/29 13:01:16;;;;;;;24.00;12.63;;;;;;;;;;4994460;28;20046;-80
2022/11/29 13:03:42;;;;;;;;;;;;;;;;;;5014383;28;20077;-80
2022/11/29 13:06:31;;;;;;;20.42;10.85;;;;;;;;;;5004385;28;20361;-80
2022/11/29 13:09:10;;;;;;;17.70;11.65;;;;;;;;;;4995194;28;20600;-80
2022/11/29 13:11:39;;;;;;;29.98;17.13;;;;;;;;;;5009827;28;20041;-80
2022/11/29 13:14:17;;;;;;;34.15;22.35;;;;;;;;;;5021966;28;20037;-83
2022/11/29 13:16:51;;;;;;;19.55;14.48;;;;;;;;;;5017288;28;20033;-79
2022/11/29 13:19:17;;;;;;;19.75;12.55;;;;;;;;;;5006939;28;20061;-80
2022/11/29 13:21:46;;;;;;;20.80;13.02;;;;;;;;;;5011175;28;20034;-79
2022/11/29 13:24:18;;;;;;;22.10;12.05;;;;;;;;;;5011472;28;20026;-80
2022/11/29 13:26:45;;;;;;;20.92;9.60;;;;;;;;;;5004379;28;20057;-79
2022/11/29 13:29:16;;;;;;;20.83;10.15;;;;;;;;;;5012939;28;20026;-80
2022/11/29 13:31:51;;;;;;;16.80;10.77;;;;;;;;;;5008205;28;20080;-82
2022/11/29 13:34:33;;;;;;;20.45;11.63;;;;;;;;;;5023327;28;20468;-80
2022/11/29 13:36:59;;;;;;;31.92;16.15;;;;;;;;;;5021894;28;20034;-79
2022/11/29 13:39:39;;;;;;;29.45;17.25;;;;;;;;;;5012423;28;20085;-81
2022/11/29 13:42:12;;;;;;;22.92;14.07;;;;;;;;;;5014474;28;20044;-82
2022/11/29 13:44:38;;;;;;;16.23;9.60;;;;;;;;;;5016287;28;20038;-81
2022/11/29 13:47:15;;;;;;;18.95;12.27;;;;;;;;;;4994328;28;20448;-81
2022/11/29 13:50:03;;;;;;;21.48;14.32;;;;;;;;;;5007475;28;20030;-81
2022/11/29 13:52:40;;;;;;;17.35;12.70;;;;;;;;;;5010772;28;20028;-80
2022/11/29 13:55:06;;;;;;;27.02;16.23;;;;;;;;;;5008445;28;20428;-80
2022/11/29 13:57:51;;;;;;;18.75;14.02;;;;;;;;;;5003374;28;20022;-81
2022/11/29 14:00:17;;;;;;;;;;;;;;;;;;5018379;28;20037;-79
2022/11/29 14:02:43;;;;;;;20.48;12.18;;;;;;;;;;5031904;28;19949;-81
2022/11/29 14:05:24;;;;;;;20.10;11.80;;;;;;;;;;5032755;28;20120;-81
2022/11/29 14:08:08;;;;;;;27.17;13.77;;;;;;;;;;5032247;28;20425;-83
2022/11/29 14:10:34;;;;;;;;;;;;;;;;;;5033032;28;20100;-80
2022/11/29 14:13:01;;;;;;;18.58;11.43;;;;;;;;;;5032814;28;20356;-80
2022/11/29 14:15:28;;;;;;;15.07;10.70;;;;;;;;;;5032384;28;20097;-79
2022/11/29 14:17:58;;;;;;;93.35;53.13;;;;;;;;;;5032586;28;20108;-80
2022/11/29 14:20:26;;;;;;;69.07;28.40;;;;;;;;;;5032508;28;20030;-78
2022/11/29 14:23:05;;;;;;;54.38;27.25;;;;;;;;;;5031894;28;20113;-79
2022/11/29 14:25:32;;;;;;;20.23;14.52;;;;;;;;;;5032231;28;20021;-78
2022/11/29 14:28:00;;;;;;;27.33;19.50;;;;;;;;;;5031314;28;20494;-79
2022/11/29 14:30:53;;;;;;;35.35;27.17;;;;;;;;;;5020635;28;20635;-78
2022/11/29 14:33:37;;;;;;;19.85;17.38;;;;;;;;;;4969725;28;20041;-79
2022/11/29 14:36:06;;;;;;;21.90;18.30;;;;;;;;;;4992653;28;20026;-80
2022/11/29 14:38:51;;;;;;;31.92;22.95;;;;;;;;;;4992610;28;20533;-79
2022/11/29 14:41:20;;;;;;;54.88;33.50;;;;;;;;;;4992444;28;20034;-79
2022/11/29 14:43:46;;;;;;;38.17;23.95;;;;;;;;;;4992862;28;20508;-80
2022/11/29 14:46:15;;;;;;;30.83;21.73;;;;;;;;;;5011412;28;20104;-80
2022/11/29 14:48:45;;;;;;;28.02;19.08;;;;;;;;;;5031546;28;20026;-78
2022/11/29 14:51:16;;;;;;;25.95;18.27;;;;;;;;;;5032162;28;20099;-79
2022/11/29 14:53:43;;;;;;;17.45;12.60;;;;;;;;;;5031164;28;20083;-79
2022/11/29 14:56:27;;;;;;;17.38;14.48;;;;;;;;;;5031778;28;20025;-79
2022/11/29 14:59:12;;;;;;;17.05;13.20;;;;;;;;;;5031753;28;20500;-79
2022/11/29 15:01:42;;;;;;;21.88;16.73;;;;;;;;;;5030134;28;20064;-78
2022/11/29 15:04:11;;;;;;;29.45;19.42;;;;;;;;;;5030446;28;20036;-79
2022/11/29 15:06:38;;;;;;;31.55;17.98;;;;;;;;;;5032347;28;20041;-79
2022/11/29 15:09:08;;;;;;;29.20;19.27;;;;;;;;;;5031124;28;20032;-79